Time;durP1;ratioP1;P1;durP2;ratioP2;P2;SDS_P1;SDS_P2;PMS_P1;PMS_P2;Temp;Humidity;BMP_temperature;BMP_pressure;BME280_temperature;BME280_humidity;BME280_pressure;Samples;Min_cycle;Max_cycle;Signal;HPM_P1;HPM_P2
2021/12/17 00:00:57;;;;;;;18.88;9.85;;;;;;;1.33;100.00;101173.00;5131566;27;20097;-80
2021/12/17 00:03:35;;;;;;;21.45;10.90;;;;;;;1.34;100.00;101181.91;5132777;27;20066;-79
2021/12/17 00:06:14;;;;;;;18.88;9.50;;;;;;;1.23;100.00;101175.28;5132079;27;20070;-79
2021/12/17 00:08:43;;;;;;;21.13;10.13;;;;;;;1.34;100.00;101176.53;5126278;27;20055;-79
2021/12/17 00:11:11;;;;;;;16.95;9.20;;;;;;;1.30;100.00;101178.50;5131663;27;20055;-79
2021/12/17 00:13:39;;;;;;;21.23;9.63;;;;;;;1.32;100.00;101170.41;5132619;27;20096;-79
2021/12/17 00:16:14;;;;;;;19.35;10.38;;;;;;;1.43;100.00;101189.50;5130713;27;20568;-79
2021/12/17 00:18:55;;;;;;;18.27;10.18;;;;;;;1.37;100.00;101166.56;5119016;27;20046;-79
2021/12/17 00:48:52;;;;;;;28.48;10.68;;;;;;;1.62;100.00;101154.56;5131725;27;20421;-79
2021/12/17 00:54:08;;;;;;;20.10;10.80;;;;;;;1.71;100.00;101135.31;5126639;27;20120;-79
2021/12/17 00:56:36;;;;;;;23.42;11.20;;;;;;;1.53;100.00;101128.25;5130986;27;20534;-79
2021/12/17 00:59:03;;;;;;;18.13;10.60;;;;;;;1.71;100.00;101147.88;5131989;27;20537;-79
2021/12/17 01:01:31;;;;;;;19.77;10.48;;;;;;;1.71;100.00;101148.72;5127007;27;20058;-79
2021/12/17 01:03:59;;;;;;;22.92;10.68;;;;;;;1.65;100.00;101119.56;5132126;27;20043;-79
2021/12/17 01:06:26;;;;;;;18.83;10.52;;;;;;;1.72;100.00;101139.75;5126648;27;20043;-79
2021/12/17 01:08:53;;;;;;;19.92;10.27;;;;;;;1.83;100.00;101144.53;5130331;27;20051;-79
2021/12/17 01:11:20;;;;;;;22.70;11.32;;;;;;;1.95;100.00;101168.03;5131860;27;20059;-79
2021/12/17 01:13:47;;;;;;;21.73;12.27;;;;;;;1.87;100.00;101166.72;5123883;28;20139;-79
2021/12/17 01:16:15;;;;;;;22.77;11.27;;;;;;;1.95;100.00;101173.41;5132263;27;20043;-79
2021/12/17 01:18:53;;;;;;;21.38;10.93;;;;;;;1.86;100.00;101162.31;5132059;27;20179;-79
2021/12/17 01:21:36;;;;;;;20.45;11.27;;;;;;;1.89;100.00;101165.69;5119037;28;20047;-79
2021/12/17 01:24:29;;;;;;;23.90;11.15;;;;;;;1.82;100.00;101147.31;5131328;28;20530;-79
2021/12/17 01:35:23;;;;;;;26.10;12.02;;;;;;;1.78;100.00;101160.03;5128572;27;20096;-79
2021/12/17 01:43:26;;;;;;;19.23;10.43;;;;;;;1.99;100.00;101163.41;5123905;27;20868;-79
2021/12/17 01:45:53;;;;;;;26.23;10.82;;;;;;;1.96;100.00;101155.53;5130318;28;20048;-79
2021/12/17 01:48:26;;;;;;;21.33;11.15;;;;;;;1.92;100.00;101159.31;5123558;28;20039;-79
2021/12/17 01:56:51;;;;;;;19.65;11.48;;;;;;;1.93;100.00;101143.13;5125016;27;20600;-79
2021/12/17 01:59:21;;;;;;;21.65;11.25;;;;;;;1.95;100.00;101151.94;5134019;27;20057;-79
2021/12/17 02:01:48;;;;;;;25.15;12.93;;;;;;;1.90;100.00;101134.38;5133043;27;20493;-79
2021/12/17 02:04:15;;;;;;;22.55;12.13;;;;;;;1.88;100.00;101125.53;5135214;27;20043;-79
2021/12/17 02:06:42;;;;;;;22.88;10.60;;;;;;;1.97;100.00;101145.66;5126759;27;20554;-79
2021/12/17 02:09:45;;;;;;;24.48;11.98;;;;;;;1.97;100.00;101134.91;5134049;27;20554;-79
2021/12/17 02:12:27;;;;;;;22.77;12.07;;;;;;;1.98;100.00;101129.47;5131614;27;20163;-79
2021/12/17 02:20:42;;;;;;;23.25;12.05;;;;;;;2.10;100.00;101138.69;5132974;27;20342;-79
2021/12/17 02:28:42;;;;;;;19.08;10.85;;;;;;;2.02;100.00;101114.06;5131329;27;20050;-78
2021/12/17 02:28:59;;;;;;;22.27;11.35;;;;;;;1.96;100.00;101109.91;5127904;27;20054;-79
2021/12/17 02:31:28;;;;;;;20.42;11.10;;;;;;;2.03;100.00;101121.16;5132421;27;20061;-79
2021/12/17 02:33:59;;;;;;;21.73;11.30;;;;;;;1.99;100.00;101108.84;5135568;27;20046;-79
2021/12/17 02:36:31;;;;;;;20.83;11.18;;;;;;;2.08;100.00;101111.06;5134196;27;20084;-79
2021/12/17 02:39:31;;;;;;;22.55;11.63;;;;;;;2.12;100.00;101110.81;5131532;27;20049;-79
2021/12/17 02:47:28;;;;;;;21.83;11.48;;;;;;;2.25;100.00;101102.09;5110661;28;20613;-78
2021/12/17 02:49:55;;;;;;;24.90;10.50;;;;;;;2.16;100.00;101102.59;5121290;27;20039;-79
2021/12/17 02:52:27;;;;;;;26.67;12.20;;;;;;;2.27;100.00;101109.13;5131517;27;20119;-79
2021/12/17 02:54:57;;;;;;;20.83;10.15;;;;;;;2.21;100.00;101104.06;5129975;27;20066;-79
2021/12/17 02:57:25;;;;;;;21.75;11.00;;;;;;;2.30;100.00;101106.28;5133864;27;20047;-79
2021/12/17 02:59:52;;;;;;;26.08;11.85;;;;;;;2.21;100.00;101097.84;5126913;27;20050;-79
2021/12/17 03:02:23;;;;;;;21.60;11.35;;;;;;;2.27;100.00;101097.50;5129589;27;20050;-79
2021/12/17 03:04:50;;;;;;;22.73;12.02;;;;;;;2.22;100.00;101091.53;5134845;27;20051;-79
2021/12/17 03:07:17;;;;;;;19.15;10.75;;;;;;;2.20;100.00;101088.06;5128139;27;20059;-79
2021/12/17 03:10:02;;;;;;;18.05;10.82;;;;;;;2.25;100.00;101091.38;5133627;27;20043;-79
2021/12/17 03:12:34;;;;;;;25.13;10.40;;;;;;;2.13;100.00;101079.47;5130601;27;20088;-79
2021/12/17 03:15:08;;;;;;;21.58;11.25;;;;;;;2.28;100.00;101096.56;5134114;27;20540;-79
2021/12/17 03:17:59;;;;;;;19.27;11.10;;;;;;;2.22;100.00;101099.59;5131932;27;20456;-79
2021/12/17 03:23:31;;;;;;;24.35;10.70;;;;;;;2.36;100.00;101099.69;5129713;27;20468;-79
2021/12/17 03:26:01;;;;;;;21.67;10.90;;;;;;;2.34;100.00;101098.06;5132916;27;20082;-79
2021/12/17 03:28:28;;;;;;;;;;;;;;;2.44;100.00;101099.28;5134255;27;20528;-80
2021/12/17 03:30:55;;;;;;;22.23;10.75;;;;;;;2.31;100.00;101099.06;5132995;27;20290;-79
2021/12/17 03:33:22;;;;;;;25.60;11.25;;;;;;;2.25;100.00;101088.69;5133404;27;20088;-80
2021/12/17 03:35:49;;;;;;;19.40;10.68;;;;;;;2.35;100.00;101114.06;5136414;27;20043;-79
2021/12/17 03:38:16;;;;;;;26.15;11.00;;;;;;;2.26;100.00;101099.34;5129570;27;20047;-79
2021/12/17 03:40:44;;;;;;;17.42;9.70;;;;;;;2.32;100.00;101094.56;5133584;27;20047;-79
2021/12/17 03:43:21;;;;;;;20.67;10.70;;;;;;;2.30;100.00;101095.53;5131370;27;20130;-79
2021/12/17 03:45:48;;;;;;;22.70;10.77;;;;;;;2.34;100.00;101103.41;5133600;27;20046;-79
2021/12/17 03:48:15;;;;;;;16.20;10.50;;;;;;;2.33;100.00;101099.84;5132910;27;20054;-79
2021/12/17 03:50:41;;;;;;;21.00;10.77;;;;;;;2.44;100.00;101110.88;5133142;27;20051;-79
2021/12/17 03:53:09;;;;;;;19.92;10.88;;;;;;;2.32;100.00;101108.88;5128801;27;20047;-79
2021/12/17 03:55:36;;;;;;;18.65;10.15;;;;;;;2.26;100.00;101103.84;5132974;27;20047;-79
2021/12/17 03:58:03;;;;;;;17.35;9.40;;;;;;;2.38;100.00;101123.75;5133180;27;20076;-78
2021/12/17 04:00:31;;;;;;;20.75;10.60;;;;;;;2.27;100.00;101090.34;5133036;27;20079;-79
2021/12/17 04:02:58;;;;;;;19.25;10.10;;;;;;;2.34;100.00;101106.97;5132350;27;20096;-78
2021/12/17 04:05:26;;;;;;;17.13;9.85;;;;;;;2.39;100.00;101106.69;5129666;27;20045;-79
2021/12/17 04:07:58;;;;;;;25.90;11.20;;;;;;;2.50;100.00;101107.00;5132613;27;20104;-79
2021/12/17 04:10:40;;;;;;;20.75;10.85;;;;;;;2.56;100.00;101098.59;5129923;27;20525;-79
2021/12/17 04:13:24;;;;;;;18.17;10.52;;;;;;;2.59;100.00;101090.34;5129661;27;20561;-79
2021/12/17 04:15:57;;;;;;;19.02;10.63;;;;;;;2.47;100.00;101102.66;5126020;27;20047;-79
2021/12/17 04:18:24;;;;;;;20.30;10.40;;;;;;;2.46;100.00;101092.84;5125249;27;20047;-79
2021/12/17 04:20:51;;;;;;;16.92;9.90;;;;;;;2.29;100.00;101077.69;5126780;27;20054;-79
2021/12/17 04:23:20;;;;;;;17.38;10.20;;;;;;;2.37;100.00;101095.19;5132488;27;20049;-79
2021/12/17 04:25:47;;;;;;;19.13;10.68;;;;;;;2.38;100.00;101086.16;5123715;27;20043;-79
2021/12/17 04:28:15;;;;;;;24.42;10.23;;;;;;;2.38;100.00;101076.31;5132847;27;20047;-79
2021/12/17 04:30:42;;;;;;;20.67;11.50;;;;;;;2.45;100.00;101064.28;5132117;27;20134;-79
2021/12/17 04:33:10;;;;;;;22.35;10.73;;;;;;;2.38;100.00;101052.16;5126405;27;20054;-79
2021/12/17 04:35:39;;;;;;;15.55;9.27;;;;;;;2.38;100.00;101079.00;5124822;27;20050;-79
2021/12/17 04:38:08;;;;;;;20.75;10.93;;;;;;;2.32;100.00;101071.28;5129492;27;20142;-79
2021/12/17 04:40:36;;;;;;;19.20;10.35;;;;;;;2.48;100.00;101073.97;5132367;27;20053;-79
2021/12/17 04:43:13;;;;;;;16.52;10.55;;;;;;;2.48;100.00;101082.03;5132332;27;20110;-79
2021/12/17 04:45:49;;;;;;;18.80;10.65;;;;;;;2.34;100.00;101063.16;5132556;27;20047;-79
2021/12/17 04:59:16;;;;;;;16.73;9.95;;;;;;;2.37;100.00;101054.94;5137913;27;20084;-79
2021/12/17 05:01:43;;;;;;;19.60;10.00;;;;;;;2.51;100.00;101068.44;5132240;27;20484;-79
2021/12/17 05:04:11;;;;;;;19.10;9.60;;;;;;;2.51;100.00;101062.19;5129451;27;20058;-79
2021/12/17 05:06:38;;;;;;;17.40;10.35;;;;;;;2.43;100.00;101057.28;5130831;27;20047;-79
2021/12/17 05:09:17;;;;;;;15.73;8.90;;;;;;;2.41;100.00;101053.78;5131461;27;20138;-78
2021/12/17 05:19:58;;;;;;;21.40;10.82;;;;;;;2.44;100.00;101051.81;5127402;28;20057;-79
2021/12/17 05:22:27;;;;;;;16.83;10.55;;;;;;;2.35;100.00;101033.53;5131851;27;20047;-78
2021/12/17 05:24:54;;;;;;;20.30;10.00;;;;;;;2.37;100.00;101039.69;5127948;27;20388;-79
2021/12/17 05:27:21;;;;;;;26.30;11.77;;;;;;;2.46;100.00;101047.22;5132244;27;20223;-79
2021/12/17 05:29:48;;;;;;;23.98;12.70;;;;;;;2.50;100.00;101068.50;5131931;27;20543;-79
2021/12/17 05:32:14;;;;;;;19.25;10.60;;;;;;;2.27;100.00;101052.75;5127546;27;20044;-79
2021/12/17 05:34:41;;;;;;;17.30;10.10;;;;;;;2.37;100.00;101069.22;5134331;27;20123;-79
2021/12/17 05:37:09;;;;;;;17.30;9.80;;;;;;;2.34;100.00;101047.91;5135786;27;20042;-80
2021/12/17 05:39:36;;;;;;;19.30;10.23;;;;;;;2.52;100.00;101059.44;5127697;27;20039;-79
2021/12/17 05:42:04;;;;;;;18.20;10.15;;;;;;;2.43;100.00;101058.13;5136242;27;20047;-80
2021/12/17 05:44:31;;;;;;;18.48;10.45;;;;;;;2.47;100.00;101064.22;5137894;27;20047;-80
2021/12/17 05:46:57;;;;;;;20.55;10.63;;;;;;;2.51;100.00;101046.09;5131047;27;20096;-80
2021/12/17 05:49:26;;;;;;;19.65;9.75;;;;;;;2.62;100.00;101054.38;5131600;27;20048;-80
2021/12/17 05:51:55;;;;;;;19.55;10.38;;;;;;;2.49;100.00;101043.50;5134408;27;20047;-80
2021/12/17 05:54:23;;;;;;;20.65;10.43;;;;;;;2.36;100.00;101055.88;5130754;27;20051;-80
2021/12/17 05:56:51;;;;;;;18.27;9.80;;;;;;;2.28;100.00;101059.00;5135267;27;20117;-80
2021/12/17 05:59:18;;;;;;;16.42;8.18;;;;;;;2.25;100.00;101053.78;5126347;27;20043;-81
2021/12/17 06:01:45;;;;;;;20.83;9.95;;;;;;;2.23;100.00;101053.88;5132114;27;20051;-80
2021/12/17 06:04:12;;;;;;;16.90;9.63;;;;;;;2.29;100.00;101064.28;5133397;27;20054;-80
2021/12/17 06:06:45;;;;;;;16.92;9.65;;;;;;;2.37;100.00;101071.03;5132482;27;20039;-81
2021/12/17 06:09:13;;;;;;;18.70;9.95;;;;;;;2.31;100.00;101056.13;5134182;27;20589;-81
2021/12/17 06:11:41;;;;;;;20.48;10.32;;;;;;;2.46;100.00;101068.69;5133002;27;20047;-81
2021/12/17 06:14:08;;;;;;;19.50;9.57;;;;;;;2.47;100.00;101078.50;5133604;27;20055;-80
2021/12/17 06:16:35;;;;;;;18.95;10.32;;;;;;;2.44;100.00;101083.16;5135163;27;20043;-80
2021/12/17 06:19:02;;;;;;;22.95;11.10;;;;;;;2.45;100.00;101096.50;5130648;27;20486;-80
2021/12/17 06:21:29;;;;;;;17.08;9.85;;;;;;;2.34;100.00;101082.81;5134318;27;20100;-80
2021/12/17 06:23:56;;;;;;;22.05;10.98;;;;;;;2.28;100.00;101075.09;5124933;27;20048;-80
2021/12/17 06:26:23;;;;;;;18.33;9.98;;;;;;;2.27;100.00;101081.41;5124410;27;20050;-80
2021/12/17 06:28:51;;;;;;;17.02;8.98;;;;;;;2.30;100.00;101100.03;5134800;27;20047;-80
2021/12/17 06:31:19;;;;;;;15.48;9.20;;;;;;;2.28;100.00;101086.69;5129500;27;20409;-80
2021/12/17 06:33:46;;;;;;;17.85;8.43;;;;;;;2.29;100.00;101069.63;5135823;27;20047;-80
2021/12/17 06:36:13;;;;;;;17.48;10.13;;;;;;;2.59;100.00;101106.47;5132941;27;20055;-80
2021/12/17 06:38:40;;;;;;;18.65;9.80;;;;;;;2.42;100.00;101099.34;5135027;27;20047;-80
2021/12/17 06:41:07;;;;;;;15.80;9.23;;;;;;;2.44;100.00;101092.09;5133690;27;20505;-80
2021/12/17 06:43:38;;;;;;;14.45;9.35;;;;;;;2.34;100.00;101092.69;5134058;27;20384;-80
2021/12/17 06:46:19;;;;;;;17.95;8.57;;;;;;;2.27;100.00;101095.72;5134769;27;20100;-80
2021/12/17 06:48:48;;;;;;;14.85;8.90;;;;;;;2.27;100.00;101105.56;5123590;27;20592;-80
2021/12/17 06:59:52;;;;;;;12.68;7.70;;;;;;;2.06;100.00;101102.22;5109110;27;20391;-81
2021/12/17 07:10:47;;;;;;;11.07;7.03;;;;;;;1.87;100.00;101122.00;5099812;28;20043;-81
2021/12/17 07:21:40;;;;;;;9.75;6.05;;;;;;;1.67;100.00;101128.41;5105283;28;20541;-81
2021/12/17 07:32:46;;;;;;;9.98;6.20;;;;;;;1.45;100.00;101112.56;5103515;28;20059;-81
2021/12/17 07:40:39;;;;;;;14.18;7.18;;;;;;;1.30;100.00;101124.91;5095893;28;20046;-81
2021/12/17 07:43:12;;;;;;;13.52;7.38;;;;;;;1.23;100.00;101124.38;5103391;28;20062;-81
2021/12/17 07:45:39;;;;;;;11.45;6.50;;;;;;;1.12;100.00;101096.38;5106050;28;20282;-81
2021/12/17 07:48:08;;;;;;;10.43;6.72;;;;;;;1.18;100.00;101109.47;5097008;28;20044;-81
2021/12/17 07:50:36;;;;;;;11.27;6.85;;;;;;;1.18;100.00;101121.03;5100189;28;20063;-81
2021/12/17 07:53:04;;;;;;;13.10;6.65;;;;;;;1.10;100.00;101108.97;5103822;28;20456;-81
2021/12/17 07:55:34;;;;;;;11.55;6.47;;;;;;;1.02;100.00;101112.91;5099366;28;20051;-82
2021/12/17 07:58:01;;;;;;;10.05;6.22;;;;;;;1.00;100.00;101117.47;5103782;28;20039;-81
2021/12/17 08:00:28;;;;;;;11.40;6.38;;;;;;;1.01;100.00;101118.31;5100709;28;20067;-81
2021/12/17 08:02:55;;;;;;;11.63;6.43;;;;;;;0.98;100.00;101107.75;5099500;28;20068;-81
2021/12/17 08:05:23;;;;;;;11.32;7.15;;;;;;;1.07;100.00;101123.41;5104745;28;20043;-81
2021/12/17 08:07:50;;;;;;;13.90;6.75;;;;;;;1.00;100.00;101109.44;5099972;28;20040;-81
2021/12/17 08:10:19;;;;;;;13.70;6.75;;;;;;;1.12;100.00;101128.53;5092069;28;20399;-81
2021/12/17 08:12:46;;;;;;;15.18;7.75;;;;;;;1.18;100.00;101113.00;5087243;28;20040;-81
2021/12/17 08:15:14;;;;;;;11.38;6.63;;;;;;;1.28;100.00;101128.63;5089336;28;20126;-81
2021/12/17 08:18:02;;;;;;;11.32;5.68;;;;;;;1.20;100.00;101135.22;5094350;28;20083;-82
2021/12/17 08:26:12;;;;;;;11.85;6.57;;;;;;;1.03;100.00;101136.06;5085060;28;20055;-81
2021/12/17 08:31:32;;;;;;;10.63;5.90;;;;;;;1.00;100.00;101122.81;5076995;28;19930;-81
2021/12/17 08:33:59;;;;;;;12.15;6.72;;;;;;;1.01;100.00;101115.63;5092793;28;20137;-81
2021/12/17 08:36:28;;;;;;;25.08;10.55;;;;;;;1.26;100.00;101134.03;5078832;28;20101;-81
2021/12/17 08:38:55;;;;;;;21.10;11.57;;;;;;;1.21;100.00;101128.91;5084797;28;20428;-81
2021/12/17 08:41:49;;;;;;;24.13;12.35;;;;;;;1.21;100.00;101117.34;5092386;28;20821;-81
2021/12/17 08:47:01;;;;;;;34.72;17.52;;;;;;;1.44;100.00;101134.06;5088752;28;20047;-81
2021/12/17 08:49:27;;;;;;;29.45;15.75;;;;;;;1.40;100.00;101123.50;5091741;28;20051;-81
2021/12/17 08:51:56;;;;;;;23.17;12.18;;;;;;;1.45;100.00;101136.69;5093447;28;20294;-82
2021/12/17 08:54:24;;;;;;;28.77;15.38;;;;;;;1.55;100.00;101143.31;5093823;28;20044;-81
2021/12/17 08:56:56;;;;;;;26.52;13.98;;;;;;;1.45;100.00;101117.06;5093716;28;20457;-81
2021/12/17 08:59:23;;;;;;;24.20;13.18;;;;;;;1.55;100.00;101132.59;5090052;28;20044;-81
2021/12/17 09:01:51;;;;;;;23.73;11.88;;;;;;;1.52;100.00;101130.06;5090644;28;20514;-80
2021/12/17 09:04:18;;;;;;;25.48;11.52;;;;;;;1.69;100.00;101147.09;5092200;28;20043;-80
2021/12/17 09:06:45;;;;;;;20.83;11.82;;;;;;;1.72;100.00;101146.94;5093337;28;20054;-81
2021/12/17 09:09:17;;;;;;;17.77;9.43;;;;;;;1.68;100.00;101130.13;5091909;28;20058;-80
2021/12/17 09:11:45;;;;;;;17.40;10.18;;;;;;;1.74;100.00;101132.47;5093121;28;20079;-81
2021/12/17 09:14:12;;;;;;;17.67;9.65;;;;;;;1.88;100.00;101153.25;5093000;28;20514;-81
2021/12/17 09:16:42;;;;;;;22.95;11.80;;;;;;;2.04;100.00;101145.22;5092986;28;20056;-80
2021/12/17 09:19:10;;;;;;;19.20;10.13;;;;;;;2.21;100.00;101147.00;5091876;28;20055;-80
2021/12/17 09:21:37;;;;;;;22.85;11.43;;;;;;;2.29;100.00;101152.00;5092179;28;20135;-80
2021/12/17 09:24:04;;;;;;;18.38;9.82;;;;;;;2.21;100.00;101128.22;5092780;28;20051;-80
2021/12/17 09:26:34;;;;;;;22.55;11.27;;;;;;;2.46;100.00;101151.91;5092067;28;20059;-80
2021/12/17 09:29:03;;;;;;;21.90;10.38;;;;;;;2.64;100.00;101155.41;5093173;28;20400;-80
2021/12/17 09:31:32;;;;;;;19.83;10.10;;;;;;;2.68;100.00;101149.88;5091943;28;20067;-80
2021/12/17 09:34:01;;;;;;;19.45;9.65;;;;;;;2.60;100.00;101143.09;5092380;28;20044;-80
2021/12/17 09:36:28;;;;;;;17.08;9.65;;;;;;;2.61;100.00;101133.25;5092757;28;20052;-79
2021/12/17 09:38:57;;;;;;;18.67;9.43;;;;;;;2.75;100.00;101144.06;5092626;28;20040;-80
2021/12/17 09:41:26;;;;;;;15.77;8.68;;;;;;;2.84;100.00;101153.44;5091921;28;20096;-80
2021/12/17 09:43:55;;;;;;;16.02;8.73;;;;;;;2.94;100.00;101151.09;5092060;28;20044;-80
2021/12/17 09:46:23;;;;;;;17.30;8.60;;;;;;;3.13;100.00;101153.59;5092516;28;20044;-80
2021/12/17 09:48:50;;;;;;;12.45;7.18;;;;;;;3.07;100.00;101127.94;5091898;28;20047;-80
2021/12/17 09:51:20;;;;;;;14.82;7.47;;;;;;;3.10;100.00;101135.84;5091743;28;20488;-80
2021/12/17 09:53:47;;;;;;;13.38;7.22;;;;;;;3.34;100.00;101140.72;5092475;28;20040;-80
2021/12/17 09:56:14;;;;;;;14.63;7.35;;;;;;;3.26;100.00;101114.28;5091965;28;20054;-81
2021/12/17 09:58:41;;;;;;;15.93;7.65;;;;;;;3.44;100.00;101130.31;5091749;28;20043;-80
2021/12/17 10:01:14;;;;;;;15.63;7.57;;;;;;;3.50;100.00;101140.69;5092354;28;20047;-87
2021/12/17 10:03:43;;;;;;;14.55;8.45;;;;;;;3.51;100.00;101137.91;5093712;28;20128;-81
2021/12/17 10:06:21;;;;;;;14.32;8.23;;;;;;;3.57;100.00;101136.69;5093536;28;20043;-81
2021/12/17 10:08:59;;;;;;;15.00;8.23;;;;;;;3.70;100.00;101159.22;5084445;28;20044;-81
2021/12/17 10:11:35;;;;;;;13.10;7.20;;;;;;;3.71;100.00;101136.72;5091578;28;20098;-81
2021/12/17 10:14:17;;;;;;;11.20;6.47;;;;;;;3.81;100.00;101138.84;5092057;28;20048;-81
2021/12/17 10:16:47;;;;;;;12.82;6.82;;;;;;;3.98;100.00;101151.28;5091842;28;20425;-81
2021/12/17 10:19:42;;;;;;;13.52;7.18;;;;;;;3.94;100.00;101136.28;5091128;28;20044;-81
2021/12/17 10:22:12;;;;;;;12.35;7.90;;;;;;;4.13;100.00;101146.78;5086245;28;20055;-81
2021/12/17 10:24:42;;;;;;;;;;;;;;;4.20;100.00;101146.31;5091626;28;20052;-81
2021/12/17 10:27:20;;;;;;;11.88;7.78;;;;;;;4.09;100.00;101135.34;5085993;28;19924;-81
2021/12/17 10:29:47;;;;;;;12.80;7.18;;;;;;;4.19;100.00;101141.88;5091386;28;20040;-81
2021/12/17 10:32:21;;;;;;;8.23;4.90;;;;;;;4.26;100.00;101134.31;5091458;28;20055;-81
2021/12/17 10:35:16;;;;;;;12.50;5.30;;;;;;;4.36;100.00;101113.88;5090852;28;20054;-81
2021/12/17 10:37:45;;;;;;;6.97;4.57;;;;;;;4.40;100.00;101117.28;5091611;28;20400;-81
2021/12/17 10:40:21;;;;;;;11.57;5.60;;;;;;;4.57;100.00;101140.44;5090714;28;20040;-81
2021/12/17 10:42:58;;;;;;;11.35;5.78;;;;;;;4.54;100.00;101109.16;5091107;28;20039;-80
2021/12/17 10:45:31;;;;;;;14.80;6.93;;;;;;;4.57;100.00;101108.97;5090980;28;20479;-81
2021/12/17 10:48:24;;;;;;;15.02;7.05;;;;;;;4.82;100.00;101133.44;5089980;28;20051;-80
2021/12/17 10:50:54;;;;;;;14.30;6.70;;;;;;;4.95;100.00;101129.00;5091445;28;20046;-81
2021/12/17 10:53:25;;;;;;;10.23;6.63;;;;;;;4.91;100.00;101128.34;5091054;28;20071;-81
2021/12/17 10:55:56;;;;;;;12.90;7.78;;;;;;;4.83;100.00;101117.19;5090087;28;20438;-81
2021/12/17 10:58:23;;;;;;;11.02;5.93;;;;;;;4.85;100.00;101112.56;5090988;28;20036;-81
2021/12/17 11:00:57;;;;;;;10.38;6.00;;;;;;;4.91;100.00;101114.88;5090866;28;20055;-80
2021/12/17 11:03:26;;;;;;;8.00;5.07;;;;;;;4.96;100.00;101110.03;5091361;28;20488;-80
2021/12/17 11:05:53;;;;;;;8.30;5.32;;;;;;;4.96;100.00;101099.25;5089774;28;20057;-81
2021/12/17 11:08:24;;;;;;;10.35;5.32;;;;;;;4.95;100.00;101097.53;5090616;28;20058;-80
2021/12/17 11:10:57;;;;;;;9.43;5.30;;;;;;;4.92;100.00;101086.97;5089489;28;20052;-81
2021/12/17 11:13:24;;;;;;;12.55;5.38;;;;;;;5.14;100.00;101107.94;5091471;28;20431;-80
2021/12/17 11:15:52;;;;;;;10.85;4.40;;;;;;;5.04;100.00;101093.34;5091333;28;20044;-81
2021/12/17 11:18:19;;;;;;;8.27;4.82;;;;;;;5.25;100.00;101103.66;5090691;28;20044;-80
2021/12/17 11:20:48;;;;;;;8.98;5.35;;;;;;;5.21;100.00;101081.44;5090886;28;20040;-80
2021/12/17 11:23:16;;;;;;;9.60;4.93;;;;;;;5.32;100.00;101105.84;5088655;28;20044;-80
2021/12/17 11:25:45;;;;;;;8.35;4.88;;;;;;;5.18;100.00;101089.75;5091396;28;20089;-80
2021/12/17 11:28:12;;;;;;;8.68;4.97;;;;;;;5.39;100.00;101110.81;5091035;28;20048;-81
2021/12/17 11:30:42;;;;;;;8.93;5.22;;;;;;;5.37;100.00;101093.88;5090990;28;20051;-80
2021/12/17 11:33:09;;;;;;;8.95;5.38;;;;;;;5.50;100.00;101102.88;5090135;28;20040;-81
2021/12/17 11:35:39;;;;;;;8.00;5.22;;;;;;;5.60;100.00;101095.00;5091332;28;20048;-80
2021/12/17 11:38:12;;;;;;;9.02;5.15;;;;;;;5.54;100.00;101090.03;5095966;28;20040;-80
2021/12/17 11:40:45;;;;;;;11.25;5.70;;;;;;;5.73;100.00;101086.94;5091650;28;20044;-80
2021/12/17 11:43:50;;;;;;;8.68;5.43;;;;;;;5.52;100.00;101078.50;5091152;28;20048;-80
2021/12/17 11:46:19;;;;;;;7.97;5.22;;;;;;;5.59;100.00;101080.66;5052324;28;20077;-80
2021/12/17 11:48:55;;;;;;;10.47;5.67;;;;;;;5.66;100.00;101086.47;5051530;28;20491;-81
2021/12/17 11:51:26;;;;;;;11.20;5.40;;;;;;;5.60;100.00;101054.53;5074929;28;20852;-81
2021/12/17 11:54:04;;;;;;;8.52;5.15;;;;;;;5.75;100.00;101085.88;5094023;28;20066;-80
2021/12/17 11:56:38;;;;;;;9.27;4.95;;;;;;;5.89;100.00;101086.75;5094810;28;20076;-80
2021/12/17 11:59:07;;;;;;;9.15;5.15;;;;;;;5.90;100.00;101073.13;5095195;28;20094;-80
2021/12/17 12:01:57;;;;;;;8.52;4.65;;;;;;;5.97;100.00;101070.88;5096523;28;20055;-80
2021/12/17 12:04:45;;;;;;;8.02;4.88;;;;;;;5.95;100.00;101064.72;5096319;28;20052;-81
2021/12/17 12:07:14;;;;;;;7.80;4.38;;;;;;;5.96;100.00;101070.00;5096485;28;20048;-80
2021/12/17 12:10:00;;;;;;;9.40;4.10;;;;;;;6.02;100.00;101068.72;5096343;28;20048;-80
2021/12/17 12:12:30;;;;;;;8.52;4.93;;;;;;;6.10;100.00;101077.16;5093429;28;20301;-81
2021/12/17 12:15:34;;;;;;;6.93;4.30;;;;;;;5.97;100.00;101073.59;5093577;28;20074;-80
2021/12/17 12:18:19;;;;;;;7.20;4.55;;;;;;;5.88;100.00;101061.56;5093058;28;20059;-81
2021/12/17 12:20:56;;;;;;;9.23;5.22;;;;;;;5.94;100.00;101049.47;5088198;28;20101;-80
2021/12/17 12:23:36;;;;;;;10.00;4.65;;;;;;;5.93;100.00;101066.63;5093554;28;20409;-81
2021/12/17 12:26:33;;;;;;;9.93;5.22;;;;;;;5.96;100.00;101056.50;5093752;28;20486;-80
2021/12/17 12:29:05;;;;;;;7.20;5.32;;;;;;;6.15;100.00;101060.63;5092804;28;20040;-81
2021/12/17 12:31:44;;;;;;;7.55;4.82;;;;;;;6.12;100.00;101055.44;5093077;28;20105;-80
2021/12/17 12:34:13;;;;;;;8.68;4.65;;;;;;;6.07;100.00;101038.69;5094426;28;20105;-80
2021/12/17 12:36:54;;;;;;;8.43;5.13;;;;;;;6.13;100.00;101051.78;5094018;28;20054;-81
2021/12/17 12:39:24;;;;;;;9.07;5.28;;;;;;;6.26;100.00;101052.59;5093989;28;20051;-80
2021/12/17 12:42:04;;;;;;;7.10;4.25;;;;;;;6.29;100.00;101052.41;5088447;28;20051;-80
2021/12/17 12:45:13;;;;;;;6.97;4.28;;;;;;;6.32;100.00;101057.59;5093396;28;20468;-81
2021/12/17 12:47:48;;;;;;;6.40;3.53;;;;;;;6.35;100.00;101051.94;5092951;28;20056;-80
2021/12/17 12:50:18;;;;;;;8.10;3.92;;;;;;;6.34;100.00;101057.47;5093159;28;20520;-81
2021/12/17 12:52:55;;;;;;;8.20;4.50;;;;;;;6.28;100.00;101044.38;5085520;28;20529;-80
2021/12/17 12:55:26;;;;;;;11.10;4.45;;;;;;;6.41;100.00;101058.72;5090110;28;20040;-81
2021/12/17 12:58:07;;;;;;;9.50;5.35;;;;;;;6.30;100.00;101039.75;5087460;28;20067;-80
2021/12/17 13:00:37;;;;;;;6.25;3.92;;;;;;;6.20;100.00;101044.94;5091513;28;20039;-80
2021/12/17 13:03:06;;;;;;;5.90;3.58;;;;;;;6.22;100.00;101061.03;5092700;28;20132;-80
2021/12/17 13:05:35;;;;;;;9.18;4.35;;;;;;;6.20;100.00;101061.13;5090104;28;20052;-80
2021/12/17 13:08:04;;;;;;;5.07;3.45;;;;;;;6.00;100.00;101043.69;5084567;28;20098;-80
2021/12/17 13:10:34;;;;;;;6.45;3.53;;;;;;;5.96;100.00;101044.81;5085267;28;20044;-80
2021/12/17 13:13:17;;;;;;;4.82;3.42;;;;;;;5.92;100.00;101035.25;5092913;28;20044;-80
2021/12/17 13:16:02;;;;;;;7.82;3.78;;;;;;;5.87;100.00;101050.88;5095026;28;20126;-86
2021/12/17 13:21:31;;;;;;;4.70;3.25;;;;;;;5.88;100.00;101055.31;5094335;28;20043;-80
2021/12/17 13:24:10;;;;;;;7.95;4.22;;;;;;;5.77;100.00;101048.84;5093781;28;20054;-79
2021/12/17 13:26:39;;;;;;;7.13;4.03;;;;;;;5.70;100.00;101046.69;5087941;28;20040;-79
2021/12/17 13:29:12;;;;;;;7.65;4.45;;;;;;;5.75;100.00;101036.41;5094593;28;20051;-79
2021/12/17 13:31:53;;;;;;;16.58;6.03;;;;;;;5.56;100.00;101015.28;5092680;28;20483;-80
2021/12/17 13:34:26;;;;;;;8.05;5.35;;;;;;;5.55;100.00;101041.38;5094020;28;20109;-80
2021/12/17 13:36:58;;;;;;;6.68;4.85;;;;;;;5.45;100.00;101016.88;5092622;28;20044;-78
2021/12/17 13:39:27;;;;;;;7.45;4.70;;;;;;;5.54;100.00;101036.97;5079195;28;20060;-78
2021/12/17 13:41:55;;;;;;;9.45;5.65;;;;;;;5.64;100.00;101048.81;5091584;28;20044;-76
2021/12/17 13:44:31;;;;;;;8.98;5.78;;;;;;;5.56;100.00;101039.56;5084511;28;20437;-78
2021/12/17 13:47:09;;;;;;;14.90;8.60;;;;;;;5.52;100.00;101052.38;5091961;28;20441;-78
2021/12/17 13:49:36;;;;;;;12.57;7.75;;;;;;;5.58;100.00;101065.44;5092245;28;20044;-78
2021/12/17 13:52:04;;;;;;;15.25;8.85;;;;;;;5.59;100.00;101048.28;5091454;28;20050;-79
2021/12/17 13:54:31;;;;;;;16.55;8.13;;;;;;;5.46;100.00;101042.84;5091780;28;20040;-79
2021/12/17 13:56:58;;;;;;;15.30;7.63;;;;;;;5.40;100.00;101055.91;5091802;28;20047;-78